createdAt,value
2022-12-22T00:00:57.436Z,100122.97
2022-12-22T00:03:02.821Z,100129.03
2022-12-22T00:05:21.060Z,100125.53
2022-12-22T00:07:26.140Z,100129.81
2022-12-22T00:09:31.268Z,100128.19
2022-12-22T00:11:36.728Z,100123.84
2022-12-22T00:13:44.377Z,100122.97
2022-12-22T00:15:49.482Z,100123.03
2022-12-22T00:17:54.571Z,100124.69
2022-12-22T00:19:59.582Z,100129.88
2022-12-22T00:22:16.850Z,100122.97
2022-12-22T00:24:21.909Z,100120.44
2022-12-22T00:26:27.490Z,100118.72
2022-12-22T00:28:32.867Z,100113.53
2022-12-22T00:30:38.296Z,100117.84
2022-12-22T00:32:45.150Z,100107.53
2022-12-22T00:34:50.694Z,100107.53
2022-12-22T00:36:55.835Z,100123.88
2022-12-22T00:39:00.947Z,100123.88
2022-12-22T00:41:06.090Z,100130.66
2022-12-22T00:43:11.171Z,100128.09
2022-12-22T00:45:16.307Z,100122.97
2022-12-22T00:47:28.854Z,100129.91
2022-12-22T00:49:37.051Z,100131.56
2022-12-22T00:51:42.183Z,100127.13
2022-12-22T00:53:47.393Z,100124.53
2022-12-22T00:55:52.639Z,100127.97
2022-12-22T00:57:57.730Z,100123.63
2022-12-22T01:00:02.860Z,100123.66
2022-12-22T01:02:08.139Z,100118.41
2022-12-22T01:04:14.198Z,100113.25
2022-12-22T01:06:19.669Z,100114.13
2022-12-22T01:08:24.730Z,100110.72
2022-12-22T01:10:30.945Z,100114.19
2022-12-22T01:12:37.465Z,100113.34
2022-12-22T01:14:42.507Z,100114.22
2022-12-22T01:16:47.664Z,100110.81
2022-12-22T01:18:52.806Z,100114.19
2022-12-22T01:20:58.171Z,100104.75
2022-12-22T01:23:03.225Z,100105.53
2022-12-22T01:25:15.647Z,100103.78
2022-12-22T01:27:20.879Z,100107.13
2022-12-22T01:29:25.974Z,100110.56
2022-12-22T01:31:35.262Z,100108.03
2022-12-22T01:33:40.429Z,100113.22
2022-12-22T01:35:45.482Z,100105.53
2022-12-22T01:37:50.541Z,100115.75
2022-12-22T01:39:55.825Z,100125.16
2022-12-22T01:42:00.922Z,100122.56
2022-12-22T01:44:08.546Z,100126.03
2022-12-22T01:46:19.802Z,100131.22
2022-12-22T01:48:31.126Z,100126.97
2022-12-22T01:50:39.267Z,100126.13
2022-12-22T01:52:44.536Z,100130.50
2022-12-22T01:54:50.605Z,100124.47
2022-12-22T01:56:55.818Z,100128.72
2022-12-22T01:59:04.199Z,100130.47
2022-12-22T02:01:09.386Z,100132.22
2022-12-22T02:03:18.803Z,100126.09
2022-12-22T02:05:24.889Z,100128.69
2022-12-22T02:07:38.009Z,100127.06
2022-12-22T02:09:52.620Z,100130.50
2022-12-22T02:12:08.896Z,100135.63
2022-12-22T02:14:29.950Z,100133.88
2022-12-22T02:16:42.069Z,100143.25
2022-12-22T02:18:50.647Z,100140.63
2022-12-22T02:21:00.444Z,100139.78
2022-12-22T02:23:08.983Z,100146.47
2022-12-22T02:25:23.284Z,100145.59
2022-12-22T02:27:30.046Z,100154.22
2022-12-22T02:29:40.050Z,100148.97
2022-12-22T02:31:45.391Z,100148.13
2022-12-22T02:33:51.558Z,100143.00
2022-12-22T02:36:02.860Z,100151.59
2022-12-22T02:38:11.499Z,100153.31
2022-12-22T02:40:25.985Z,100155.75
2022-12-22T02:42:35.645Z,100150.69
2022-12-22T02:44:49.489Z,100155.75
2022-12-22T02:47:04.515Z,100154.16
2022-12-22T02:49:19.350Z,100151.59
2022-12-22T02:51:30.709Z,100151.44
2022-12-22T02:53:36.784Z,100144.66
2022-12-22T02:55:42.100Z,100138.69
2022-12-22T02:57:47.297Z,100149.81
2022-12-22T02:59:52.270Z,100152.31
2022-12-22T03:01:57.809Z,100161.81
2022-12-22T03:04:02.891Z,100166.09
2022-12-22T03:06:08.078Z,100169.56
2022-12-22T03:08:13.163Z,100173.75
2022-12-22T03:10:18.545Z,100183.09
2022-12-22T03:12:23.702Z,100186.53
2022-12-22T03:14:28.675Z,100183.97
2022-12-22T03:16:33.769Z,100190.00
2022-12-22T03:18:38.983Z,100183.97
2022-12-22T03:20:44.167Z,100180.56
2022-12-22T03:22:49.198Z,100183.84
2022-12-22T03:24:54.205Z,100179.59
2022-12-22T03:26:56.188Z,100190.69
2022-12-22T03:28:58.188Z,100196.72
2022-12-22T03:31:04.497Z,100200.13
2022-12-22T03:33:06.667Z,100224.94
2022-12-22T03:35:09.151Z,100225.69
2022-12-22T03:37:11.128Z,100232.41
2022-12-22T03:39:13.077Z,100236.75
2022-12-22T03:41:35.010Z,100237.69
2022-12-22T03:43:40.142Z,100242.53
2022-12-22T03:45:45.176Z,100247.75
2022-12-22T03:47:47.371Z,100245.25
2022-12-22T03:49:49.394Z,100246.03
2022-12-22T03:51:52.010Z,100257.00
2022-12-22T03:53:53.931Z,100260.38
2022-12-22T03:55:56.035Z,100263.13
2022-12-22T03:57:58.108Z,100270.75
2022-12-22T04:00:00.033Z,100264.78
2022-12-22T04:02:02.231Z,100267.28
2022-12-22T04:04:04.572Z,100278.38
2022-12-22T04:06:06.531Z,100280.00
2022-12-22T04:08:08.411Z,100281.81
2022-12-22T04:10:14.116Z,100268.81
2022-12-22T04:12:19.148Z,100256.72
2022-12-22T04:14:21.841Z,100251.66
2022-12-22T04:16:23.822Z,100255.88
2022-12-22T04:18:25.864Z,100264.31
2022-12-22T04:20:28.572Z,100269.47
2022-12-22T04:22:30.574Z,100262.63
2022-12-22T04:24:32.592Z,100252.34
2022-12-22T04:26:34.987Z,100259.25
2022-12-22T04:28:36.971Z,100262.59
2022-12-22T04:30:39.047Z,100251.53
2022-12-22T04:32:41.063Z,100249.88
2022-12-22T04:34:42.981Z,100241.41
2022-12-22T04:36:44.985Z,100242.13
2022-12-22T04:38:47.098Z,100247.22
2022-12-22T04:40:49.034Z,100255.63
2022-12-22T04:42:51.066Z,100252.94
2022-12-22T04:44:53.083Z,100262.31
2022-12-22T04:46:55.031Z,100272.56
2022-12-22T04:49:00.313Z,100268.22
2022-12-22T04:51:04.360Z,100267.22
2022-12-22T04:53:06.263Z,100270.50
2022-12-22T04:55:09.480Z,100273.09
2022-12-22T04:57:11.749Z,100268.97
2022-12-22T04:59:13.785Z,100265.56
2022-12-22T05:01:18.365Z,100270.28
2022-12-22T05:03:20.395Z,100274.72
2022-12-22T05:05:22.340Z,100274.91
2022-12-22T05:07:24.406Z,100278.19
2022-12-22T05:09:26.307Z,100269.41
2022-12-22T05:11:28.448Z,100273.09
2022-12-22T05:13:31.568Z,100274.00
2022-12-22T05:15:35.747Z,100269.72
2022-12-22T05:17:37.704Z,100276.56
2022-12-22T05:19:39.671Z,100277.31
2022-12-22T05:21:41.598Z,100276.66
2022-12-22T05:23:44.323Z,100279.16
2022-12-22T05:25:46.238Z,100268.97
2022-12-22T05:27:50.750Z,100269.75
2022-12-22T05:29:52.779Z,100278.13
2022-12-22T05:31:54.753Z,100287.28
2022-12-22T05:33:56.701Z,100294.22
2022-12-22T05:35:58.696Z,100296.94
2022-12-22T05:38:00.656Z,100292.50
2022-12-22T05:40:03.461Z,100285.47
2022-12-22T05:42:05.645Z,100282.78
2022-12-22T05:44:07.634Z,100287.16
2022-12-22T05:46:11.485Z,100281.09
2022-12-22T05:48:14.005Z,100277.50
2022-12-22T05:50:18.911Z,100282.78
2022-12-22T05:52:20.989Z,100274.25
2022-12-22T05:54:22.962Z,100267.38
2022-12-22T05:56:25.026Z,100266.28
2022-12-22T05:58:26.990Z,100264.50
2022-12-22T06:00:31.316Z,100265.13
2022-12-22T06:02:33.495Z,100270.16
2022-12-22T06:04:35.608Z,100272.78
2022-12-22T06:06:37.540Z,100270.25
2022-12-22T06:08:39.513Z,100274.66
2022-12-22T06:10:41.546Z,100276.19
2022-12-22T06:12:43.822Z,100288.09
2022-12-22T06:14:45.866Z,100294.72
2022-12-22T06:16:47.869Z,100291.16
2022-12-22T06:18:49.814Z,100295.34
2022-12-22T06:20:53.606Z,100299.66
2022-12-22T06:22:55.624Z,100290.50
2022-12-22T06:24:57.524Z,100276.16
2022-12-22T06:26:59.620Z,100274.31
2022-12-22T06:29:01.547Z,100287.94
2022-12-22T06:31:03.652Z,100294.75
2022-12-22T06:33:05.662Z,100296.59
2022-12-22T06:35:10.081Z,100298.97
2022-12-22T06:37:12.057Z,100312.53
2022-12-22T06:39:15.562Z,100307.94
2022-12-22T06:41:37.321Z,100314.03
2022-12-22T06:43:39.296Z,100310.66
2022-12-22T06:45:42.762Z,100310.91
2022-12-22T06:47:44.778Z,100305.88
2022-12-22T06:49:46.744Z,100302.50
2022-12-22T06:51:49.182Z,100306.06
2022-12-22T06:53:51.092Z,100313.00
2022-12-22T06:55:53.154Z,100301.72
2022-12-22T06:57:55.154Z,100306.59
2022-12-22T06:59:57.914Z,100293.31
2022-12-22T07:02:00.152Z,100290.88
2022-12-22T07:04:02.349Z,100279.69
2022-12-22T07:06:04.693Z,100288.06
2022-12-22T07:08:09.059Z,100275.19
2022-12-22T07:10:12.177Z,100284.66
2022-12-22T07:12:14.136Z,100280.56
2022-12-22T07:14:16.305Z,100278.69
2022-12-22T07:16:18.405Z,100290.47
2022-12-22T07:18:20.811Z,100289.84
2022-12-22T07:20:22.783Z,100289.63
2022-12-22T07:22:29.982Z,100282.06
2022-12-22T07:24:33.333Z,100279.34
2022-12-22T07:26:35.463Z,100285.31
2022-12-22T07:28:39.077Z,100289.63
2022-12-22T07:30:41.001Z,100298.19
2022-12-22T07:32:42.944Z,100295.59
2022-12-22T07:34:45.738Z,100287.03
2022-12-22T07:36:47.798Z,100293.00
2022-12-22T07:38:51.373Z,100295.44
2022-12-22T07:41:04.494Z,100292.34
2022-12-22T07:43:08.305Z,100299.72
2022-12-22T07:45:11.707Z,100285.34
2022-12-22T07:47:13.698Z,100280.19
2022-12-22T07:49:19.031Z,100296.31
2022-12-22T07:51:21.071Z,100289.97
2022-12-22T07:53:23.091Z,100297.59
2022-12-22T07:55:27.181Z,100295.03
2022-12-22T07:57:29.222Z,100293.94
2022-12-22T07:59:31.365Z,100290.56
2022-12-22T08:01:33.501Z,100298.81
2022-12-22T08:03:35.594Z,100293.84
2022-12-22T08:05:38.166Z,100301.66
2022-12-22T08:07:40.190Z,100293.03
2022-12-22T08:09:42.254Z,100295.31
2022-12-22T08:11:44.251Z,100295.13
2022-12-22T08:13:46.766Z,100294.31
2022-12-22T08:15:48.944Z,100295.88
2022-12-22T08:17:50.860Z,100285.56
2022-12-22T08:19:53.096Z,100273.41
2022-12-22T08:21:55.105Z,100265.00
2022-12-22T08:23:57.133Z,100267.66
2022-12-22T08:26:02.693Z,100266.97
2022-12-22T08:28:05.275Z,100260.16
2022-12-22T08:30:08.843Z,100254.09
2022-12-22T08:32:13.046Z,100254.28
2022-12-22T08:34:16.835Z,100251.88
2022-12-22T08:36:18.988Z,100243.25
2022-12-22T08:38:21.168Z,100247.81
2022-12-22T08:40:30.872Z,100248.81
2022-12-22T08:42:34.145Z,100243.78
2022-12-22T08:44:39.235Z,100243.72
2022-12-22T08:46:41.308Z,100239.47
2022-12-22T08:48:43.408Z,100247.03
2022-12-22T08:50:45.488Z,100245.94
2022-12-22T08:52:47.567Z,100236.03
2022-12-22T08:54:49.601Z,100242.88
2022-12-22T08:56:51.678Z,100245.50
2022-12-22T08:58:53.671Z,100242.09
2022-12-22T09:00:55.867Z,100235.13
2022-12-22T09:02:58.223Z,100231.78
2022-12-22T09:05:00.485Z,100230.84
2022-12-22T09:07:02.826Z,100227.44
2022-12-22T09:09:08.002Z,100227.00
2022-12-22T09:11:09.978Z,100222.75
2022-12-22T09:13:12.110Z,100223.28
2022-12-22T09:15:14.962Z,100224.41
2022-12-22T09:17:16.946Z,100226.19
2022-12-22T09:19:19.269Z,100222.75
2022-12-22T09:21:22.084Z,100218.53
2022-12-22T09:23:24.190Z,100228.00
2022-12-22T09:25:26.483Z,100223.81
2022-12-22T09:27:31.018Z,100222.13
2022-12-22T09:29:33.363Z,100222.19
2022-12-22T09:31:35.486Z,100219.72
2022-12-22T09:33:37.951Z,100209.66
2022-12-22T09:35:41.900Z,100212.06
2022-12-22T09:37:43.995Z,100214.00
2022-12-22T09:39:46.455Z,100213.28
2022-12-22T09:41:52.052Z,100207.22
2022-12-22T09:43:56.168Z,100197.91
2022-12-22T09:45:58.741Z,100198.84
2022-12-22T09:48:02.425Z,100190.34
2022-12-22T09:50:08.983Z,100193.19
2022-12-22T09:52:24.462Z,100195.03
2022-12-22T09:54:27.385Z,100194.06
2022-12-22T09:56:29.714Z,100192.44
2022-12-22T09:58:34.719Z,100182.47
2022-12-22T10:00:37.755Z,100180.75
2022-12-22T10:02:53.076Z,100175.72
2022-12-22T10:05:05.113Z,100169.88
2022-12-22T10:07:13.524Z,100167.44
2022-12-22T10:09:48.326Z,100170.06
2022-12-22T10:11:51.639Z,100165.75
2022-12-22T10:13:53.676Z,100150.31
2022-12-22T10:15:56.608Z,100159.09
2022-12-22T10:18:12.436Z,100155.88
2022-12-22T10:20:21.216Z,100149.16
2022-12-22T10:22:27.823Z,100150.88
2022-12-22T10:24:35.356Z,100141.59
2022-12-22T10:26:37.707Z,100130.50
2022-12-22T10:28:44.779Z,100135.72
2022-12-22T10:30:46.972Z,100145.19
2022-12-22T10:33:04.280Z,100144.41
2022-12-22T10:35:07.281Z,100140.97
2022-12-22T10:37:09.389Z,100145.28
2022-12-22T10:39:12.232Z,100143.69
2022-12-22T10:41:20.208Z,100144.59
2022-12-22T10:43:25.313Z,100137.88
2022-12-22T10:45:28.425Z,100139.63
2022-12-22T10:47:30.588Z,100143.09
2022-12-22T10:51:41.241Z,100135.50
2022-12-22T10:53:48.191Z,100133.81
2022-12-22T10:56:06.263Z,100132.09
2022-12-22T10:58:10.340Z,100128.72
2022-12-22T11:00:18.594Z,100115.94
2022-12-22T11:02:23.221Z,100124.63
2022-12-22T11:04:28.274Z,100118.56
2022-12-22T11:06:30.289Z,100112.69
2022-12-22T11:08:32.921Z,100111.91
2022-12-22T11:10:41.806Z,100113.66
2022-12-22T11:12:50.371Z,100113.72
2022-12-22T11:15:01.123Z,100111.19
2022-12-22T11:17:11.908Z,100098.31
2022-12-22T11:19:20.316Z,100097.50
2022-12-22T11:21:26.143Z,100088.06
2022-12-22T11:23:34.943Z,100082.06
2022-12-22T11:25:46.760Z,100066.66
2022-12-22T11:27:54.899Z,100062.44
2022-12-22T11:30:00.507Z,100065.00
2022-12-22T11:32:08.899Z,100064.16
2022-12-22T11:34:20.677Z,100064.22
2022-12-22T11:36:28.798Z,100058.22
2022-12-22T11:38:34.396Z,100062.53
2022-12-22T11:40:40.049Z,100060.88
2022-12-22T11:42:52.249Z,100069.44
2022-12-22T11:45:15.903Z,100073.75
2022-12-22T11:47:19.873Z,100075.47
2022-12-22T11:49:33.028Z,100077.25
2022-12-22T11:51:41.398Z,100072.97
2022-12-22T11:53:49.731Z,100069.59
2022-12-22T11:55:59.556Z,100067.03
2022-12-22T11:58:14.507Z,100061.78
2022-12-22T12:00:19.186Z,100058.38
2022-12-22T12:02:22.267Z,100053.28
2022-12-22T12:04:30.798Z,100052.41
2022-12-22T12:06:37.578Z,100049.91
2022-12-22T12:08:44.183Z,100040.47
2022-12-22T12:10:51.769Z,100047.41
2022-12-22T12:12:57.774Z,100031.06
2022-12-22T12:15:05.942Z,100037.03
2022-12-22T12:17:09.011Z,100036.19
2022-12-22T12:19:18.128Z,100021.59
2022-12-22T12:21:27.331Z,100030.16
2022-12-22T12:23:44.774Z,100010.41
2022-12-22T12:25:55.838Z,100012.16
2022-12-22T12:28:05.913Z,100010.44
2022-12-22T12:32:43.395Z,99998.44
2022-12-22T12:34:50.247Z,99996.72
2022-12-22T12:36:55.810Z,99999.34
2022-12-22T12:39:08.785Z,99992.47
2022-12-22T12:41:15.101Z,99999.38
2022-12-22T12:43:19.199Z,99990.78
2022-12-22T12:45:27.613Z,99988.22
2022-12-22T12:47:32.204Z,99978.78
2022-12-22T12:49:34.963Z,99978.78
2022-12-22T12:51:43.255Z,99971.94
2022-12-22T12:54:08.310Z,99971.09
2022-12-22T12:56:10.683Z,99972.81
2022-12-22T12:58:33.207Z,99979.72
2022-12-22T13:00:38.541Z,99990.84
2022-12-22T13:02:58.301Z,99995.97
2022-12-22T13:05:03.940Z,99984.88
2022-12-22T13:07:06.232Z,99980.56
2022-12-22T13:09:48.675Z,99979.75
2022-12-22T13:12:11.210Z,99983.16
2022-12-22T13:13:58.257Z,99976.25
2022-12-22T13:16:02.597Z,99974.53
2022-12-22T13:18:18.717Z,99975.41
2022-12-22T13:20:28.389Z,99987.47
2022-12-22T13:22:30.792Z,99983.16
2022-12-22T13:24:47.228Z,99978.84
2022-12-22T13:26:55.373Z,99969.41
2022-12-22T13:29:02.200Z,99969.38
2022-12-22T13:31:13.552Z,99977.13
2022-12-22T13:33:20.106Z,99971.97
2022-12-22T13:35:32.550Z,99976.28
2022-12-22T13:37:40.953Z,99975.44
2022-12-22T13:39:43.122Z,99973.72
2022-12-22T13:41:48.596Z,99972.84
2022-12-22T13:43:57.603Z,99977.16
2022-12-22T13:46:03.911Z,99972.00
2022-12-22T13:48:13.045Z,99975.44
2022-12-22T13:50:20.132Z,99966.00
2022-12-22T13:52:23.960Z,99969.41
2022-12-22T13:54:32.639Z,99967.69
2022-12-22T13:56:40.250Z,99963.41
2022-12-22T13:58:45.594Z,99973.69
2022-12-22T14:01:01.555Z,99966.84
2022-12-22T14:03:09.167Z,99972.88
2022-12-22T14:05:13.660Z,99970.28
2022-12-22T14:07:19.685Z,99967.69
2022-12-22T14:09:25.714Z,99965.94
2022-12-22T14:11:27.858Z,99953.94
2022-12-22T14:13:33.164Z,99959.94
2022-12-22T14:15:35.587Z,99958.22
2022-12-22T14:17:47.819Z,99959.06
2022-12-22T14:19:56.612Z,99959.06
2022-12-22T14:22:06.107Z,99962.50
2022-12-22T14:24:14.897Z,99964.22
2022-12-22T14:26:23.556Z,99965.94
2022-12-22T14:28:27.841Z,99955.66
2022-12-22T14:30:38.581Z,99954.78
2022-12-22T14:32:52.358Z,99968.53
2022-12-22T14:34:56.508Z,99960.78
2022-12-22T14:37:01.743Z,99956.50
2022-12-22T14:39:10.484Z,99961.66
2022-12-22T14:41:22.884Z,99959.91
2022-12-22T14:43:30.964Z,99959.91
2022-12-22T14:45:34.020Z,99955.63
2022-12-22T14:47:37.827Z,99954.78
2022-12-22T14:49:46.381Z,99955.63
2022-12-22T14:52:00.750Z,99955.63
2022-12-22T14:54:04.156Z,99956.50
2022-12-22T14:56:12.880Z,99959.09
2022-12-22T14:58:20.887Z,99962.47
2022-12-22T15:00:24.156Z,99959.94
2022-12-22T15:02:36.677Z,99961.66
2022-12-22T15:04:41.155Z,99963.38
2022-12-22T15:06:46.257Z,99968.53
2022-12-22T15:08:48.562Z,99971.09
2022-12-22T15:10:50.783Z,99968.53
2022-12-22T15:12:59.833Z,99971.94
2022-12-22T15:15:02.357Z,99967.66
2022-12-22T15:17:06.736Z,99966.78
2022-12-22T15:19:13.197Z,99975.41
2022-12-22T15:21:17.841Z,99967.66
2022-12-22T15:23:19.955Z,99965.94
2022-12-22T15:25:23.766Z,99957.34
2022-12-22T15:27:25.909Z,99965.09
2022-12-22T15:29:28.244Z,99965.97
2022-12-22T15:31:30.534Z,99964.22
2022-12-22T15:33:32.853Z,99966.81
2022-12-22T15:35:35.639Z,99964.25
2022-12-22T15:37:37.662Z,99963.38
2022-12-22T15:39:40.584Z,99967.69
2022-12-22T15:41:43.788Z,99971.13
2022-12-22T15:44:01.310Z,99965.09
2022-12-22T15:46:07.417Z,99962.50
2022-12-22T15:48:18.760Z,99968.53
2022-12-22T15:50:29.300Z,99966.81
2022-12-22T15:52:33.429Z,99968.53
2022-12-22T15:54:36.603Z,99965.09
2022-12-22T15:56:39.456Z,99957.38
2022-12-22T15:58:41.823Z,99951.38
2022-12-22T16:00:44.370Z,99955.66
2022-12-22T16:02:46.937Z,99948.78
2022-12-22T16:04:49.235Z,99958.25
2022-12-22T16:06:52.238Z,99959.06
2022-12-22T16:08:55.291Z,99959.94
2022-12-22T16:10:58.232Z,99957.31
2022-12-22T16:13:03.859Z,99956.50
2022-12-22T16:15:06.975Z,99962.50
2022-12-22T16:17:18.768Z,99955.63
2022-12-22T16:19:21.118Z,99959.06
2022-12-22T16:21:30.799Z,99953.91
2022-12-22T16:23:32.960Z,99947.03
2022-12-22T16:25:39.115Z,99956.53
2022-12-22T16:27:41.604Z,99956.50
2022-12-22T16:29:53.426Z,99961.66
2022-12-22T16:32:17.074Z,99968.50
2022-12-22T16:34:20.042Z,99965.94
2022-12-22T16:36:22.128Z,99965.91
2022-12-22T16:38:24.236Z,99968.53
2022-12-22T16:40:28.336Z,99974.50
2022-12-22T16:46:39.498Z,99979.69
2022-12-22T16:48:47.138Z,99971.94
2022-12-22T16:50:49.406Z,99973.63
2022-12-22T16:52:51.676Z,99968.50
2022-12-22T16:54:53.769Z,99970.19
2022-12-22T16:56:56.147Z,99980.50
2022-12-22T16:58:58.707Z,99988.25
2022-12-22T17:01:00.921Z,100002.03
2022-12-22T17:03:13.489Z,99994.28
2022-12-22T17:05:25.811Z,100002.03
2022-12-22T17:07:33.946Z,100007.19
2022-12-22T17:09:44.168Z,100013.16
2022-12-22T17:11:47.341Z,100023.50
2022-12-22T17:13:53.041Z,100013.19
2022-12-22T17:15:55.241Z,100017.44
2022-12-22T17:17:57.478Z,100013.19
2022-12-22T17:19:59.777Z,100010.63
2022-12-22T17:22:02.078Z,100016.56
2022-12-22T17:24:05.007Z,100025.16
2022-12-22T17:26:10.037Z,100022.53
2022-12-22T17:28:14.101Z,100023.44
2022-12-22T17:30:19.160Z,100026.06
2022-12-22T17:32:22.240Z,100025.19
2022-12-22T17:34:24.556Z,100026.09
2022-12-22T17:36:30.469Z,100033.78
2022-12-22T17:38:32.803Z,100020.94
2022-12-22T17:40:34.920Z,100020.06
2022-12-22T17:42:37.040Z,100026.88
2022-12-22T17:44:39.550Z,100023.41
2022-12-22T17:46:42.239Z,100026.84
2022-12-22T17:48:45.787Z,100023.44
2022-12-22T17:50:49.995Z,100035.50
2022-12-22T17:52:52.498Z,100042.38
2022-12-22T17:54:54.789Z,100038.06
2022-12-22T17:57:02.290Z,100037.19
2022-12-22T17:59:04.830Z,100040.66
2022-12-22T18:01:07.366Z,100028.63
2022-12-22T18:03:14.091Z,100038.13
2022-12-22T18:05:18.437Z,100038.13
2022-12-22T18:07:23.242Z,100044.97
2022-12-22T18:09:26.792Z,100042.38
2022-12-22T18:11:29.014Z,100056.97
2022-12-22T18:13:32.325Z,100044.97
2022-12-22T18:15:34.294Z,100053.59
2022-12-22T18:17:36.373Z,100058.72
2022-12-22T18:19:38.963Z,100062.13
2022-12-22T18:21:41.381Z,100062.13
2022-12-22T18:23:49.875Z,100069.03
2022-12-22T18:25:52.856Z,100079.28
2022-12-22T18:27:55.175Z,100074.16
2022-12-22T18:29:57.369Z,100089.63
2022-12-22T18:31:59.772Z,100091.34
2022-12-22T18:34:01.871Z,100088.75
2022-12-22T18:36:04.880Z,100084.41
2022-12-22T18:38:07.775Z,100093.00
2022-12-22T18:40:16.111Z,100083.53
2022-12-22T18:42:22.402Z,100081.81
2022-12-22T18:44:24.847Z,100089.56
2022-12-22T18:46:27.072Z,100085.31
2022-12-22T18:48:29.296Z,100081.00
2022-12-22T18:50:33.063Z,100071.56
2022-12-22T18:52:35.111Z,100079.25
2022-12-22T18:54:38.272Z,100072.41
2022-12-22T18:56:40.458Z,100064.72
2022-12-22T18:58:43.078Z,100063.84
2022-12-22T19:00:45.662Z,100065.59
2022-12-22T19:02:49.319Z,100060.44
2022-12-22T19:04:52.160Z,100075.09
2022-12-22T19:06:54.366Z,100062.19
2022-12-22T19:08:56.550Z,100068.97
2022-12-22T19:11:00.775Z,100064.78
2022-12-22T19:13:05.160Z,100080.19
2022-12-22T19:15:16.376Z,100075.91
2022-12-22T19:17:22.466Z,100068.22
2022-12-22T19:19:24.681Z,100062.97
2022-12-22T19:21:27.993Z,100070.75
2022-12-22T19:23:30.012Z,100080.19
2022-12-22T19:25:32.795Z,100083.63
2022-12-22T19:27:34.912Z,100081.91
2022-12-22T19:29:37.127Z,100094.81
2022-12-22T19:31:39.420Z,100086.22
2022-12-22T19:33:43.240Z,100100.81
2022-12-22T19:35:45.398Z,100094.84
2022-12-22T19:37:49.829Z,100109.50
2022-12-22T19:39:51.914Z,100106.88
2022-12-22T19:41:54.841Z,100116.38
2022-12-22T19:43:57.255Z,100117.19
2022-12-22T19:45:59.896Z,100119.75
2022-12-22T19:48:04.613Z,100115.53
2022-12-22T19:50:15.733Z,100118.97
2022-12-22T19:52:17.774Z,100113.75
2022-12-22T19:54:19.963Z,100115.53
2022-12-22T19:56:25.719Z,100112.94
2022-12-22T19:58:36.241Z,100106.06
2022-12-22T20:00:39.202Z,100113.81
2022-12-22T20:02:41.702Z,100119.81
2022-12-22T20:04:43.762Z,100118.09
2022-12-22T20:06:45.809Z,100124.13
2022-12-22T20:08:47.877Z,100121.56
2022-12-22T20:10:56.323Z,100120.69
2022-12-22T20:13:02.272Z,100129.28
2022-12-22T20:15:10.584Z,100124.13
2022-12-22T20:17:12.730Z,100127.56
2022-12-22T20:19:15.709Z,100127.56
2022-12-22T20:21:27.257Z,100128.41
2022-12-22T20:23:33.170Z,100131.00
2022-12-22T20:25:40.255Z,100126.72
2022-12-22T20:27:42.628Z,100130.13
2022-12-22T20:29:44.644Z,100124.16
2022-12-22T20:31:46.638Z,100119.00
2022-12-22T20:33:49.905Z,100123.28
2022-12-22T20:35:53.454Z,100121.53
2022-12-22T20:37:55.556Z,100124.16
2022-12-22T20:39:57.717Z,100130.19
2022-12-22T20:41:59.772Z,100134.50
2022-12-22T20:44:01.788Z,100134.44
2022-12-22T20:46:14.140Z,100136.19
2022-12-22T20:48:23.790Z,100132.72
2022-12-22T20:50:28.955Z,100137.88
2022-12-22T20:52:30.994Z,100145.63
2022-12-22T20:54:33.300Z,100142.19
2022-12-22T20:56:39.016Z,100142.16
2022-12-22T20:58:41.173Z,100147.34
2022-12-22T21:00:43.745Z,100150.66
2022-12-22T21:02:46.407Z,100148.19
2022-12-22T21:04:49.242Z,100144.78
2022-12-22T21:06:53.953Z,100149.06
2022-12-22T21:08:57.893Z,100152.50
2022-12-22T21:11:00.979Z,100149.09
2022-12-22T21:13:03.070Z,100155.88
2022-12-22T21:15:05.894Z,100154.25
2022-12-22T21:17:16.484Z,100155.94
2022-12-22T21:19:19.955Z,100155.94
2022-12-22T21:21:23.949Z,100155.97
2022-12-22T21:23:26.379Z,100164.53
2022-12-22T21:25:28.752Z,100179.13
2022-12-22T21:27:31.255Z,100178.13
2022-12-22T21:29:33.387Z,100183.41
2022-12-22T21:31:35.632Z,100190.25
2022-12-22T21:33:37.627Z,100207.34
2022-12-22T21:35:39.804Z,100198.84
2022-12-22T21:37:42.785Z,100197.13
2022-12-22T21:39:45.152Z,100193.69
2022-12-22T21:41:50.225Z,100194.50
2022-12-22T21:43:52.324Z,100197.13
2022-12-22T21:45:54.461Z,100206.63
2022-12-22T21:48:01.101Z,100210.06
2022-12-22T21:50:05.102Z,100218.63
2022-12-22T21:52:07.176Z,100218.53
2022-12-22T21:54:09.211Z,100214.38
2022-12-22T21:56:17.772Z,100208.38
2022-12-22T21:58:19.780Z,100208.38
2022-12-22T22:00:22.921Z,100213.53
2022-12-22T22:02:25.451Z,100213.47
2022-12-22T22:04:27.429Z,100216.09
2022-12-22T22:06:29.489Z,100228.13
2022-12-22T22:08:31.460Z,100224.69
2022-12-22T22:10:36.594Z,100226.41
2022-12-22T22:12:42.356Z,100236.72
2022-12-22T22:14:44.528Z,100237.53
2022-12-22T22:16:46.586Z,100247.00
2022-12-22T22:18:49.435Z,100245.16
2022-12-22T22:20:51.394Z,100246.06
2022-12-22T22:22:55.704Z,100247.84
2022-12-22T22:24:57.773Z,100245.13
2022-12-22T22:27:00.007Z,100246.03
2022-12-22T22:29:02.166Z,100240.91
2022-12-22T22:31:10.485Z,100238.38
2022-12-22T22:33:12.733Z,100234.97
2022-12-22T22:35:15.641Z,100227.22
2022-12-22T22:37:17.795Z,100230.72
2022-12-22T22:39:20.309Z,100229.69
2022-12-22T22:41:22.493Z,100231.53
2022-12-22T22:43:24.687Z,100230.66
2022-12-22T22:45:26.747Z,100241.03
2022-12-22T22:47:29.019Z,100243.63
2022-12-22T22:49:31.297Z,100240.19
2022-12-22T22:51:33.965Z,100252.22
2022-12-22T22:53:36.273Z,100250.47
2022-12-22T22:55:38.430Z,100243.50
2022-12-22T22:57:42.015Z,100248.78
2022-12-22T22:59:44.221Z,100254.78
2022-12-22T23:01:46.592Z,100254.78
2022-12-22T23:03:48.950Z,100259.09
2022-12-22T23:05:51.069Z,100254.78
2022-12-22T23:07:53.189Z,100255.59
2022-12-22T23:09:55.431Z,100253.06
2022-12-22T23:11:57.515Z,100253.06
2022-12-22T23:14:00.048Z,100254.78
2022-12-22T23:16:04.138Z,100246.94
2022-12-22T23:18:06.300Z,100251.22
2022-12-22T23:20:09.189Z,100253.00
2022-12-22T23:22:11.406Z,100264.13
2022-12-22T23:24:13.636Z,100260.69
2022-12-22T23:26:15.903Z,100261.47
2022-12-22T23:28:18.783Z,100269.28
2022-12-22T23:30:20.921Z,100265.84
2022-12-22T23:32:23.737Z,100271.81
2022-12-22T23:34:26.031Z,100270.09
2022-12-22T23:36:28.574Z,100277.00
2022-12-22T23:38:30.811Z,100262.41
2022-12-22T23:40:51.527Z,100266.75
2022-12-22T23:42:56.981Z,100271.00
2022-12-22T23:44:59.440Z,100270.16
2022-12-22T23:47:01.865Z,100275.34
2022-12-22T23:49:04.340Z,100277.06
2022-12-22T23:51:07.765Z,100286.53
2022-12-22T23:53:09.813Z,100291.56
2022-12-22T23:55:11.990Z,100291.59
2022-12-22T23:57:14.142Z,100291.63
2022-12-22T23:59:16.307Z,100308.66
